createdAt,value
2023-12-08T00:00:31.053Z,2.73
2023-12-08T00:02:59.178Z,1.73
2023-12-08T00:05:27.430Z,4.70
2023-12-08T00:07:57.274Z,1.30
2023-12-08T00:10:25.764Z,2.13
2023-12-08T00:12:53.744Z,2.77
2023-12-08T00:15:21.831Z,1.53
2023-12-08T00:17:49.914Z,2.50
2023-12-08T00:20:18.105Z,2.47
2023-12-08T00:22:46.154Z,2.13
2023-12-08T00:25:16.471Z,3.07
2023-12-08T00:27:44.502Z,2.63
2023-12-08T00:30:13.878Z,1.67
2023-12-08T00:32:42.198Z,2.73
2023-12-08T00:35:10.723Z,2.00
2023-12-08T00:37:38.785Z,2.83
2023-12-08T00:40:07.789Z,3.03
2023-12-08T00:42:37.282Z,3.53
2023-12-08T00:45:05.604Z,2.00
2023-12-08T00:47:33.759Z,1.77
2023-12-08T00:50:01.902Z,1.60
2023-12-08T00:52:29.910Z,1.67
2023-12-08T00:54:57.943Z,3.87
2023-12-08T00:57:26.181Z,1.70
2023-12-08T00:59:55.785Z,2.97
2023-12-08T01:02:23.883Z,3.57
2023-12-08T01:04:51.906Z,1.90
2023-12-08T01:07:21.197Z,1.20
2023-12-08T01:09:49.297Z,2.93
2023-12-08T01:12:17.423Z,1.70
2023-12-08T01:14:45.457Z,2.07
2023-12-08T01:17:15.138Z,3.27
2023-12-08T01:19:43.249Z,1.50
2023-12-08T01:22:11.290Z,2.00
2023-12-08T01:24:39.395Z,1.53
2023-12-08T01:27:07.504Z,1.53
2023-12-08T01:29:35.600Z,1.10
2023-12-08T01:32:03.910Z,1.50
2023-12-08T01:34:33.390Z,3.70
2023-12-08T01:37:01.508Z,1.90
2023-12-08T01:39:29.807Z,2.87
2023-12-08T01:41:57.913Z,2.03
2023-12-08T01:44:26.010Z,1.40
2023-12-08T01:46:54.346Z,1.40
2023-12-08T01:49:22.865Z,2.87
2023-12-08T01:51:52.767Z,1.33
2023-12-08T01:54:20.787Z,1.47
2023-12-08T01:56:48.830Z,1.63
2023-12-08T01:59:16.974Z,4.10
2023-12-08T02:01:45.086Z,3.73
2023-12-08T02:04:13.320Z,2.23
2023-12-08T02:06:41.333Z,2.03
2023-12-08T02:09:11.189Z,1.80
2023-12-08T02:11:39.622Z,2.07
2023-12-08T02:14:07.714Z,3.70
2023-12-08T02:16:38.561Z,1.93
2023-12-08T02:19:09.026Z,1.03
2023-12-08T02:21:37.953Z,2.00
2023-12-08T02:24:07.893Z,1.13
2023-12-08T02:26:36.065Z,1.83
2023-12-08T02:29:07.070Z,1.30
2023-12-08T02:31:38.599Z,2.23
2023-12-08T02:34:08.344Z,1.37
2023-12-08T02:36:36.785Z,2.27
2023-12-08T02:39:05.476Z,1.37
2023-12-08T02:41:34.995Z,2.13
2023-12-08T02:44:02.945Z,1.57
2023-12-08T02:46:30.926Z,1.13
2023-12-08T02:48:59.052Z,1.87
2023-12-08T02:51:27.160Z,3.63
2023-12-08T02:53:55.226Z,1.57
2023-12-08T02:56:23.234Z,2.20
2023-12-08T02:58:52.742Z,2.37
2023-12-08T03:01:20.852Z,1.87
2023-12-08T03:03:49.001Z,3.00
2023-12-08T03:06:17.051Z,145.37
2023-12-08T03:08:45.327Z,5.60
2023-12-08T03:11:13.325Z,3.37
2023-12-08T03:13:41.310Z,1.40
2023-12-08T03:16:11.369Z,2.83
2023-12-08T03:18:39.669Z,3.03
2023-12-08T03:21:08.206Z,1.43
2023-12-08T03:23:36.915Z,1.43
2023-12-08T03:26:05.125Z,3.50
2023-12-08T03:28:33.268Z,1.57
2023-12-08T03:31:01.333Z,1.00
2023-12-08T03:33:30.911Z,1.30
2023-12-08T03:35:58.952Z,1.87
2023-12-08T03:38:27.568Z,1.30
2023-12-08T03:40:55.599Z,1.23
2023-12-08T03:43:23.589Z,1.53
2023-12-08T03:45:50.532Z,1.53
2023-12-08T03:48:18.662Z,0.97
2023-12-08T03:50:48.357Z,4.17
2023-12-08T03:53:16.463Z,1.33
2023-12-08T03:55:44.547Z,1.33
2023-12-08T03:58:12.603Z,2.10
2023-12-08T04:00:40.869Z,1.13
2023-12-08T04:03:09.128Z,3.40
2023-12-08T04:05:37.214Z,2.53
2023-12-08T04:08:06.909Z,1.70
2023-12-08T04:10:35.029Z,1.53
2023-12-08T04:13:03.134Z,1.50
2023-12-08T04:15:31.449Z,1.20
2023-12-08T04:17:59.603Z,2.97
2023-12-08T04:20:27.724Z,2.13
2023-12-08T04:22:55.807Z,1.73
2023-12-08T04:25:25.229Z,1.63
2023-12-08T04:27:53.267Z,1.10
2023-12-08T04:30:21.448Z,1.40
2023-12-08T04:32:49.556Z,3.17
2023-12-08T04:35:17.630Z,2.50
2023-12-08T04:37:45.690Z,2.63
2023-12-08T04:40:14.149Z,1.57
2023-12-08T04:42:44.013Z,2.00
2023-12-08T04:45:15.094Z,1.27
2023-12-08T04:47:43.533Z,1.30
2023-12-08T04:50:11.666Z,0.97
2023-12-08T04:52:39.745Z,1.00
2023-12-08T04:55:08.007Z,1.40
2023-12-08T04:57:36.101Z,2.27
2023-12-08T05:00:06.945Z,1.20
2023-12-08T05:02:35.042Z,1.47
2023-12-08T05:05:03.070Z,1.27
2023-12-08T05:07:31.158Z,1.37
2023-12-08T05:09:59.974Z,2.27
2023-12-08T05:12:28.026Z,1.20
2023-12-08T05:14:56.057Z,2.17
2023-12-08T05:17:25.788Z,1.43
2023-12-08T05:19:54.023Z,1.10
2023-12-08T05:22:22.033Z,1.77
2023-12-08T05:24:50.245Z,1.50
2023-12-08T05:27:18.947Z,1.60
2023-12-08T05:29:47.041Z,1.50
2023-12-08T05:32:15.064Z,1.33
2023-12-08T05:34:44.562Z,1.03
2023-12-08T05:37:12.585Z,3.50
2023-12-08T05:43:02.172Z,1.40
2023-12-08T05:45:30.603Z,1.80
2023-12-08T05:47:58.939Z,1.37
2023-12-08T05:50:28.682Z,1.90
2023-12-08T05:52:56.875Z,2.63
2023-12-08T05:55:24.932Z,1.40
2023-12-08T05:57:54.170Z,1.70
2023-12-08T06:00:22.493Z,2.90
2023-12-08T06:03:02.295Z,1.93
2023-12-08T06:05:32.208Z,4.03
2023-12-08T06:08:00.852Z,2.50
2023-12-08T06:10:30.279Z,3.13
2023-12-08T06:12:58.323Z,4.33
2023-12-08T06:18:48.618Z,4.40
2023-12-08T06:21:25.734Z,2.83
2023-12-08T06:23:55.852Z,5.73
2023-12-08T06:26:25.385Z,3.57
2023-12-08T06:28:56.302Z,2.47
2023-12-08T06:31:24.326Z,1.93
2023-12-08T06:34:05.056Z,3.63
2023-12-08T06:36:47.426Z,2.23
2023-12-08T06:39:16.904Z,1.57
2023-12-08T06:41:45.034Z,2.83
2023-12-08T06:44:15.991Z,1.90
2023-12-08T06:50:06.925Z,2.77
2023-12-08T06:52:36.393Z,2.07
2023-12-08T06:55:04.451Z,2.40
2023-12-08T06:57:32.531Z,5.43
2023-12-08T07:00:01.748Z,1.47
2023-12-08T07:02:30.270Z,3.97
2023-12-08T07:05:01.291Z,2.13
2023-12-08T07:07:31.172Z,2.73
2023-12-08T07:10:24.317Z,2.50
2023-12-08T07:12:52.879Z,4.93
2023-12-08T07:15:21.852Z,4.03
2023-12-08T07:18:01.056Z,7.03
2023-12-08T07:20:34.359Z,5.10
2023-12-08T07:23:02.524Z,5.40
2023-12-08T07:28:37.946Z,9.20
2023-12-08T07:31:19.512Z,8.03
2023-12-08T07:33:50.823Z,5.60
2023-12-08T07:36:19.237Z,5.30
2023-12-08T07:38:47.686Z,5.00
2023-12-08T07:41:20.082Z,4.90
2023-12-08T07:43:52.446Z,4.37
2023-12-08T07:46:50.249Z,5.90
2023-12-08T07:49:18.673Z,5.50
2023-12-08T07:51:49.087Z,6.93
2023-12-08T07:57:42.658Z,6.13
2023-12-08T08:00:12.165Z,7.83
2023-12-08T08:02:40.514Z,5.60
2023-12-08T08:05:09.137Z,6.53
2023-12-08T08:07:37.236Z,8.20
2023-12-08T08:10:06.620Z,10.77
2023-12-08T08:12:39.833Z,8.03
2023-12-08T08:15:10.231Z,12.53
2023-12-08T08:17:40.856Z,8.53
2023-12-08T08:30:22.952Z,5.13
2023-12-08T08:33:30.251Z,3.17
2023-12-08T08:36:03.980Z,3.33
2023-12-08T08:38:45.369Z,2.70
2023-12-08T08:41:29.411Z,6.00
2023-12-08T08:44:01.280Z,4.77
2023-12-08T08:49:54.151Z,2.83
2023-12-08T08:52:25.846Z,3.27
2023-12-08T08:54:54.064Z,4.57
2023-12-08T08:57:22.092Z,3.37
2023-12-08T08:59:50.414Z,2.93
2023-12-08T09:02:24.523Z,3.30
2023-12-08T09:04:52.805Z,2.23
2023-12-08T09:07:20.952Z,3.57
2023-12-08T09:09:50.522Z,4.00
2023-12-08T09:12:18.631Z,2.47
2023-12-08T09:14:47.406Z,2.53
2023-12-08T09:17:20.550Z,7.23
2023-12-08T09:19:49.200Z,3.43
2023-12-08T09:22:17.437Z,2.60
2023-12-08T09:24:45.580Z,2.70
2023-12-08T09:27:15.195Z,2.67
2023-12-08T09:29:43.338Z,2.27
2023-12-08T09:32:11.692Z,2.87
2023-12-08T09:34:40.540Z,2.60
2023-12-08T09:37:26.554Z,2.67
2023-12-08T09:40:02.933Z,2.97
2023-12-08T09:42:37.634Z,2.63
2023-12-08T09:45:15.310Z,2.53
2023-12-08T09:47:43.691Z,2.43
2023-12-08T09:50:12.143Z,3.50
2023-12-08T09:52:40.238Z,2.87
2023-12-08T09:55:08.919Z,2.77
2023-12-08T09:57:38.565Z,2.93
2023-12-08T10:00:44.252Z,2.70
2023-12-08T10:03:12.283Z,3.07
2023-12-08T10:05:40.377Z,4.53
2023-12-08T10:08:09.903Z,4.80
2023-12-08T10:10:38.866Z,5.17
2023-12-08T10:13:17.302Z,5.03
2023-12-08T10:15:45.866Z,5.93
2023-12-08T10:18:24.174Z,4.17
2023-12-08T10:20:52.335Z,4.37
2023-12-08T10:23:23.391Z,4.87
2023-12-08T10:25:51.665Z,5.20
2023-12-08T10:28:23.622Z,5.10
2023-12-08T10:30:53.124Z,7.10
2023-12-08T10:33:22.075Z,7.77
2023-12-08T10:35:50.405Z,6.20
2023-12-08T10:38:19.212Z,5.27
2023-12-08T10:40:50.357Z,5.57
2023-12-08T10:43:24.058Z,5.27
2023-12-08T10:45:53.566Z,5.43
2023-12-08T10:48:22.184Z,5.37
2023-12-08T10:50:50.827Z,4.70
2023-12-08T10:53:19.612Z,3.60
2023-12-08T10:55:52.678Z,5.10
2023-12-08T10:58:22.853Z,6.33
2023-12-08T11:00:52.896Z,6.13
2023-12-08T11:03:23.025Z,7.50
2023-12-08T11:08:19.014Z,6.10
2023-12-08T11:10:48.375Z,5.73
2023-12-08T11:13:21.711Z,4.63
2023-12-08T11:15:54.473Z,4.47
2023-12-08T11:18:25.790Z,4.10
2023-12-08T11:20:54.435Z,3.50
2023-12-08T11:23:24.196Z,4.07
2023-12-08T11:25:57.930Z,3.80
2023-12-08T11:28:29.589Z,3.33
2023-12-08T11:30:59.573Z,5.37
2023-12-08T11:33:31.740Z,3.53
2023-12-08T11:36:07.664Z,4.70
2023-12-08T11:38:57.064Z,3.37
2023-12-08T11:41:29.104Z,3.87
2023-12-08T11:43:57.149Z,3.77
2023-12-08T11:46:25.990Z,3.63
2023-12-08T11:48:54.527Z,3.20
2023-12-08T11:51:22.714Z,3.50
2023-12-08T11:53:57.131Z,4.03
2023-12-08T11:56:41.662Z,4.43
2023-12-08T12:02:11.221Z,8.13
2023-12-08T12:04:40.983Z,3.63
2023-12-08T12:07:09.990Z,3.70
2023-12-08T12:09:41.309Z,4.23
2023-12-08T12:12:19.122Z,5.70
2023-12-08T12:14:52.145Z,4.83
2023-12-08T12:17:21.006Z,4.60
2023-12-08T12:19:50.372Z,5.50
2023-12-08T12:22:22.039Z,5.57
2023-12-08T12:24:51.745Z,4.70
2023-12-08T12:27:22.140Z,4.73
2023-12-08T12:29:52.890Z,4.93
2023-12-08T12:32:21.782Z,14.30
2023-12-08T12:34:49.986Z,12.20
2023-12-08T12:37:23.339Z,6.17
2023-12-08T12:39:52.987Z,16.83
2023-12-08T12:42:21.228Z,7.07
2023-12-08T12:45:09.573Z,7.63
2023-12-08T12:47:37.753Z,7.70
2023-12-08T12:50:06.838Z,5.87
2023-12-08T12:52:37.555Z,8.93
2023-12-08T12:55:23.742Z,6.40
2023-12-08T12:57:53.415Z,6.47
2023-12-08T13:00:34.162Z,7.77
2023-12-08T13:03:10.720Z,5.33
2023-12-08T13:05:45.796Z,11.13
2023-12-08T13:08:31.629Z,5.80
2023-12-08T13:11:51.475Z,7.50
2023-12-08T13:14:19.644Z,9.33
2023-12-08T13:16:47.774Z,7.63
2023-12-08T13:19:16.069Z,8.27
2023-12-08T13:21:45.751Z,8.43
2023-12-08T13:24:14.496Z,9.00
2023-12-08T13:26:44.173Z,11.23
2023-12-08T13:29:12.205Z,12.87
2023-12-08T13:31:40.182Z,11.67
2023-12-08T13:34:08.525Z,10.20
2023-12-08T13:36:37.490Z,9.83
2023-12-08T13:39:08.658Z,10.70
2023-12-08T13:41:37.806Z,10.20
2023-12-08T13:44:17.693Z,12.20
2023-12-08T13:46:47.148Z,13.07
2023-12-08T13:49:15.492Z,12.27
2023-12-08T13:51:45.755Z,8.50
2023-12-08T13:54:14.408Z,8.57
2023-12-08T13:56:45.435Z,9.40
2023-12-08T13:59:17.593Z,9.30
2023-12-08T14:01:50.499Z,9.30
2023-12-08T14:04:19.163Z,6.93
2023-12-08T14:06:47.603Z,9.47
2023-12-08T14:09:15.625Z,13.07
2023-12-08T14:11:46.789Z,23.13
2023-12-08T14:14:18.930Z,11.13
2023-12-08T14:17:00.252Z,9.33
2023-12-08T14:26:53.738Z,6.70
2023-12-08T14:33:20.128Z,8.40
2023-12-08T14:50:34.252Z,8.53
2023-12-08T14:53:36.572Z,8.93
2023-12-08T14:59:15.541Z,12.43
2023-12-08T15:02:27.149Z,11.30
2023-12-08T15:08:46.243Z,9.57
2023-12-08T15:11:21.685Z,10.87
2023-12-08T15:13:58.424Z,10.53
2023-12-08T15:19:48.582Z,11.67
2023-12-08T15:22:19.272Z,10.30
2023-12-08T15:24:51.792Z,12.00
2023-12-08T15:27:21.558Z,13.97
2023-12-08T15:29:55.812Z,10.77
2023-12-08T15:32:24.477Z,13.30
2023-12-08T15:34:53.438Z,15.67
2023-12-08T15:37:55.806Z,12.30
2023-12-08T15:40:23.796Z,11.30
2023-12-08T15:42:53.682Z,11.73
2023-12-08T15:48:45.004Z,10.93
2023-12-08T15:51:16.406Z,12.67
2023-12-08T15:53:45.376Z,13.20
2023-12-08T15:56:13.733Z,8.97
2023-12-08T16:02:44.319Z,9.30
2023-12-08T16:05:16.435Z,8.67
2023-12-08T16:07:44.916Z,8.60
2023-12-08T16:10:43.797Z,9.23
2023-12-08T16:13:16.551Z,9.63
2023-12-08T16:15:46.063Z,10.03
2023-12-08T16:18:14.469Z,9.17
2023-12-08T16:24:07.919Z,9.30
2023-12-08T16:26:37.808Z,12.23
2023-12-08T16:29:06.358Z,9.23
2023-12-08T16:31:35.166Z,7.30
2023-12-08T16:34:03.585Z,9.60
2023-12-08T16:36:31.800Z,9.40
2023-12-08T16:38:59.949Z,8.83
2023-12-08T16:41:42.021Z,9.50
2023-12-08T16:44:13.079Z,11.83
2023-12-08T16:46:41.407Z,10.40
2023-12-08T16:49:09.737Z,9.93
2023-12-08T16:51:38.878Z,12.33
2023-12-08T16:54:07.370Z,10.40
2023-12-08T16:56:49.053Z,11.90
2023-12-08T16:59:17.076Z,11.33
2023-12-08T17:01:45.095Z,12.27
2023-12-08T17:04:13.127Z,10.50
2023-12-08T17:06:41.143Z,12.57
2023-12-08T17:09:09.228Z,11.23
2023-12-08T17:11:41.028Z,15.10
2023-12-08T17:14:34.122Z,10.57
2023-12-08T17:17:04.419Z,12.23
2023-12-08T17:19:32.412Z,13.40
2023-12-08T17:22:02.382Z,15.20
2023-12-08T17:24:30.377Z,15.07
2023-12-08T17:26:58.858Z,13.67
2023-12-08T17:29:27.405Z,13.83
2023-12-08T17:31:59.446Z,13.83
2023-12-08T17:34:33.051Z,14.57
2023-12-08T17:37:19.583Z,12.43
2023-12-08T17:39:47.625Z,12.83
2023-12-08T17:42:15.775Z,10.70
2023-12-08T17:44:46.560Z,13.93
2023-12-08T17:47:14.843Z,12.13
2023-12-08T17:49:44.652Z,14.83
2023-12-08T17:52:50.038Z,14.13
2023-12-08T17:55:21.469Z,15.27
2023-12-08T17:57:49.472Z,13.27
2023-12-08T18:00:18.043Z,12.70
2023-12-08T18:02:52.392Z,12.97
2023-12-08T18:05:23.972Z,14.90
2023-12-08T18:07:51.980Z,15.63
2023-12-08T18:10:20.258Z,12.43
2023-12-08T18:12:58.401Z,16.10
2023-12-08T18:15:26.842Z,17.00
2023-12-08T18:21:25.198Z,18.60
2023-12-08T18:23:53.339Z,16.20
2023-12-08T18:26:21.443Z,21.00
2023-12-08T18:29:32.371Z,15.60
2023-12-08T18:32:36.395Z,15.87
2023-12-08T18:35:04.665Z,13.47
2023-12-08T18:37:34.070Z,16.27
2023-12-08T18:40:01.958Z,18.77
2023-12-08T18:42:30.576Z,14.80
2023-12-08T18:44:58.831Z,17.90
2023-12-08T18:47:27.583Z,15.00
2023-12-08T18:50:14.022Z,14.03
2023-12-08T18:52:43.480Z,18.43
2023-12-08T18:55:11.883Z,21.67
2023-12-08T18:57:40.977Z,16.40
2023-12-08T19:00:10.212Z,18.27
2023-12-08T19:02:38.703Z,26.47
2023-12-08T19:05:06.952Z,16.50
2023-12-08T19:07:35.709Z,16.67
2023-12-08T19:10:05.347Z,16.83
2023-12-08T19:12:33.458Z,14.70
2023-12-08T19:15:01.598Z,14.10
2023-12-08T19:17:29.806Z,13.40
2023-12-08T19:19:57.933Z,14.13
2023-12-08T19:22:26.239Z,17.20
2023-12-08T19:24:54.539Z,14.97
2023-12-08T19:27:30.494Z,13.07
2023-12-08T19:33:21.630Z,18.07
2023-12-08T19:35:49.768Z,21.40
2023-12-08T19:38:55.321Z,23.87
2023-12-08T19:41:23.204Z,21.13
2023-12-08T19:44:01.826Z,19.13
2023-12-08T19:46:29.879Z,20.17
2023-12-08T19:48:57.997Z,20.00
2023-12-08T19:51:26.729Z,22.17
2023-12-08T19:53:54.720Z,22.33
2023-12-08T19:56:22.661Z,22.27
2023-12-08T19:59:25.737Z,22.07
2023-12-08T20:01:55.850Z,28.00
2023-12-08T20:04:24.581Z,30.33
2023-12-08T20:06:52.685Z,26.97
2023-12-08T20:09:23.739Z,23.97
2023-12-08T20:11:51.934Z,19.47
2023-12-08T20:17:12.934Z,19.80
2023-12-08T20:19:46.110Z,20.90
2023-12-08T20:22:15.293Z,21.37
2023-12-08T20:24:43.310Z,18.00
2023-12-08T20:34:08.040Z,17.97
2023-12-08T20:36:36.222Z,15.87
2023-12-08T20:39:04.428Z,17.90
2023-12-08T20:41:32.610Z,18.10
2023-12-08T20:44:00.629Z,17.23
2023-12-08T20:46:28.642Z,18.60
2023-12-08T20:48:56.837Z,18.10
2023-12-08T20:51:26.444Z,17.30
2023-12-08T20:53:54.581Z,18.63
2023-12-08T20:56:24.361Z,17.57
2023-12-08T20:58:52.569Z,18.00
2023-12-08T21:01:20.724Z,17.30
2023-12-08T21:03:49.850Z,18.83
2023-12-08T21:06:19.276Z,22.13
2023-12-08T21:08:48.848Z,18.03
2023-12-08T21:11:16.896Z,16.87
2023-12-08T21:13:44.912Z,18.20
2023-12-08T21:16:12.972Z,19.23
2023-12-08T21:18:41.460Z,18.77
2023-12-08T21:21:09.672Z,21.13
2023-12-08T21:23:39.439Z,18.73
2023-12-08T21:26:09.827Z,16.80
2023-12-08T21:28:37.826Z,17.27
2023-12-08T21:31:06.119Z,16.10
2023-12-08T21:33:34.409Z,19.67
2023-12-08T21:36:02.546Z,16.73
2023-12-08T21:38:30.733Z,17.90
2023-12-08T21:44:28.787Z,16.97
2023-12-08T21:46:56.822Z,19.97
2023-12-08T21:50:07.355Z,21.43
2023-12-08T21:52:35.477Z,24.53
2023-12-08T21:55:03.959Z,22.87
2023-12-08T21:57:35.151Z,26.13
2023-12-08T22:00:05.573Z,23.30
2023-12-08T22:02:33.602Z,24.90
2023-12-08T22:05:01.719Z,24.50
2023-12-08T22:07:57.730Z,26.53
2023-12-08T22:10:25.736Z,28.40
2023-12-08T22:12:53.809Z,29.53
2023-12-08T22:15:37.047Z,30.43
2023-12-08T22:20:50.834Z,37.83
2023-12-08T22:23:18.928Z,39.57
2023-12-08T22:25:47.140Z,35.47
2023-12-08T22:28:27.550Z,33.70
2023-12-08T22:30:57.068Z,34.93
2023-12-08T22:33:25.607Z,38.37
2023-12-08T22:35:53.761Z,38.73
2023-12-08T22:38:23.806Z,41.13
2023-12-08T22:40:51.934Z,37.17
2023-12-08T22:43:19.970Z,37.93
2023-12-08T22:45:48.106Z,36.63
2023-12-08T22:48:17.744Z,41.87
2023-12-08T22:50:50.125Z,35.77
2023-12-08T22:53:19.726Z,41.00
2023-12-08T23:09:17.054Z,33.90
2023-12-08T23:11:45.125Z,39.63
2023-12-08T23:17:42.250Z,35.17
2023-12-08T23:20:10.928Z,36.47
2023-12-08T23:22:39.030Z,35.47
2023-12-08T23:25:09.510Z,38.53
2023-12-08T23:27:37.622Z,36.30
2023-12-08T23:30:06.297Z,35.00
2023-12-08T23:32:34.576Z,38.23
2023-12-08T23:35:05.308Z,35.67
2023-12-08T23:37:33.707Z,35.07
2023-12-08T23:40:01.789Z,34.17
2023-12-08T23:42:31.672Z,42.50
2023-12-08T23:44:59.879Z,44.93
2023-12-08T23:47:28.027Z,38.03
2023-12-08T23:49:56.135Z,40.63
2023-12-08T23:52:24.479Z,38.60
2023-12-08T23:54:52.701Z,41.20
2023-12-08T23:57:20.814Z,39.30
2023-12-08T23:59:51.670Z,33.03
